LRCL

Details ICAO LRCL (CLJ)
Name CLUJ NAPOCA
Region Romania
Timezone Europe/Bucharest (UTC+2.0)
Plans Departing 126
Arriving 140
Stats Elevation 1,036 ft / 316 m (AMSL)
Location 46.785109° 23.686166°
Runways 1
Magnetic Variation 5.537° E
Sunrise 2017-12-11 06:01:31 UTC / 2017-12-11 08:01:31 Local
Sunset 2017-12-11 14:38:22 UTC / 2017-12-11 16:38:22 Local
Advertisement - Login to hide

Runways

ID Width Length Bearing (true) Bearing (mag) Surface Threshold Offset Overrun Length
08 98 ft / 30 m 6,045 ft / 1,842 m 78.96° 73.42° Concrete 0 ft / 0 m 0 ft / 0 m
26 98 ft / 30 m 6,045 ft / 1,842 m 258.98° 253.44° Concrete 0 ft / 0 m 0 ft / 0 m

Approach Navaids

Runway Type Ident Frequency Range Bearing (true) Bearing (mag) Slope Elevation
26 Localiser ICL 110.30 MHz 18 nm / 33 km 258.84° 253.31° - 1,025 ft / 312 m (AMSL)
26 Glidescope ICL 110.30 MHz 10 nm / 19 km 258.97° 253.43° 3.20° 1,025 ft / 312 m (AMSL)
26 DME ICL 110.30 MHz 18 nm / 33 km - - - 1,100 ft / 335 m (AMSL)

Map

Weather


0- 5 10 15 20 25 30 35+ Temperature / ° C

Clouds and Precipitation
Forecast for 2017-12-11 00:00 UTC. Updated 2 hours ago

Ground ~20,000 ft ~40,000 ft Winds

METAR

LRCL 110030Z 08010KT 9999 BKN055 M01/M05 Q1009

TAF

Not found

Frequencies

Tower 134.40 MHz TWR
Approach 118.70 MHz PRECISION
Approach 125.10 MHz APP
Warning: Do not use this data for real-world aviation or navigation. No guarantee of current accuracy is given.